Time,TemperatureF,DewpointF,PressureIn,WindDirection,WindDirectionDegrees,WindSpeedMPH,WindSpeedGustMPH,Humidity,HourlyPrecipIn,Conditions,Clouds,dailyrainin,SoftwareType,DateUTC
2013-04-10 00:00:00,33.4,32.4,29.99,NW,316,9.0,9.0,96,0.04,,,0.00,Wunderground v.1.15,2013-04-10 05:00:00,
2013-04-10 00:05:00,33.5,32.5,30.00,NW,308,7.0,9.0,96,0.00,,,0.00,Wunderground v.1.15,2013-04-10 05:05:00,
2013-04-10 00:15:00,33.5,32.5,30.00,NNE,13,5.0,6.0,96,0.30,,,0.04,Wunderground v.1.15,2013-04-10 05:15:00,
2013-04-10 00:25:00,33.2,32.2,29.95,North,350,9.0,11.0,96,0.20,,,0.07,Wunderground v.1.15,2013-04-10 05:25:00,
2013-04-10 00:30:00,33.1,32.1,29.94,North,8,12.0,13.0,96,0.20,,,0.09,Wunderground v.1.15,2013-04-10 05:30:00,
2013-04-10 00:40:00,32.9,31.9,29.84,NNE,23,17.0,17.0,96,0.18,,,0.12,Wunderground v.1.15,2013-04-10 05:40:00,
2013-04-10 00:50:00,32.9,31.9,29.78,NE,37,20.0,20.0,96,0.13,,,0.15,Wunderground v.1.15,2013-04-10 05:50:00,
2013-04-10 01:00:00,33.3,32.3,29.94,NW,314,15.0,15.0,96,0.05,,,0.15,Wunderground v.1.15,2013-04-10 06:00:00,
2013-04-10 01:10:00,33.2,32.2,29.98,NW,307,10.0,10.0,96,0.04,,,0.16,Wunderground v.1.15,2013-04-10 06:10:00,
2013-04-10 01:20:00,33.1,32.1,29.96,NNW,338,9.0,14.0,96,0.00,,,0.16,Wunderground v.1.15,2013-04-10 06:20:00,
2013-04-10 01:30:00,32.8,31.8,29.91,North,5,11.0,12.0,96,0.00,,,0.16,Wunderground v.1.15,2013-04-10 06:30:00,
2013-04-10 01:35:00,32.7,31.7,29.91,NW,323,11.0,12.0,96,0.00,,,0.17,Wunderground v.1.15,2013-04-10 06:35:00,
2013-04-10 01:45:00,32.8,31.8,29.95,NNW,340,10.0,14.0,96,0.00,,,0.17,Wunderground v.1.15,2013-04-10 06:45:00,
2013-04-10 01:55:00,32.9,31.9,29.93,North,8,9.0,9.0,96,0.00,,,0.17,Wunderground v.1.15,2013-04-10 06:55:00,
2013-04-10 02:00:00,32.9,31.9,29.88,NNE,18,11.0,17.0,96,0.00,,,0.17,Wunderground v.1.15,2013-04-10 07:00:00,
2013-04-10 02:05:00,32.8,31.8,29.85,NNE,15,15.0,17.0,96,0.00,,,0.17,Wunderground v.1.15,2013-04-10 07:05:00,
2013-04-10 02:15:00,32.7,31.7,29.85,NW,317,16.0,17.0,96,0.00,,,0.17,Wunderground v.1.15,2013-04-10 07:15:00,
2013-04-10 02:30:00,32.8,31.8,29.93,NW,326,12.0,12.0,96,0.00,,,0.17,Wunderground v.1.15,2013-04-10 07:30:00,
2013-04-10 02:40:00,32.9,31.9,29.91,NNW,334,11.0,11.0,96,0.00,,,0.17,Wunderground v.1.15,2013-04-10 07:40:00,
2013-04-10 02:50:00,33.0,32.0,29.91,NNE,19,11.0,11.0,96,0.00,,,0.17,Wunderground v.1.15,2013-04-10 07:50:00,
2013-04-10 03:00:00,33.2,32.2,29.92,North,10,11.0,11.0,96,0.00,,,0.17,Wunderground v.1.15,2013-04-10 08:00:00,
2013-04-10 03:10:00,33.2,32.2,29.92,North,359,12.0,15.0,96,0.00,,,0.17,Wunderground v.1.15,2013-04-10 08:10:00,
2013-04-10 03:20:00,33.3,32.3,29.93,NNE,18,11.0,13.0,96,0.00,,,0.17,Wunderground v.1.15,2013-04-10 08:20:00,
2013-04-10 03:30:00,33.3,32.3,29.91,NNW,338,11.0,14.0,96,0.00,,,0.17,Wunderground v.1.15,2013-04-10 08:30:00,
2013-04-10 03:40:00,33.3,32.3,29.90,NE,36,14.0,14.0,96,0.00,,,0.17,Wunderground v.1.15,2013-04-10 08:40:00,
2013-04-10 03:50:00,33.3,32.3,29.90,North,3,14.0,17.0,96,0.00,,,0.17,Wunderground v.1.15,2013-04-10 08:50:00,
2013-04-10 04:00:00,33.5,32.5,29.90,North,9,12.0,12.0,96,0.00,,,0.17,Wunderground v.1.15,2013-04-10 09:00:00,
2013-04-10 04:10:00,33.6,32.6,29.91,NNE,13,10.0,11.0,96,0.00,,,0.17,Wunderground v.1.15,2013-04-10 09:10:00,
2013-04-10 04:15:00,33.7,32.7,29.91,NNW,332,11.0,11.0,96,0.00,,,0.17,Wunderground v.1.15,2013-04-10 09:15:00,
2013-04-10 04:25:00,33.9,32.9,29.90,NNW,347,8.0,11.0,96,0.00,,,0.17,Wunderground v.1.15,2013-04-10 09:25:00,
2013-04-10 04:35:00,33.9,32.9,29.92,NW,326,9.0,12.0,96,0.00,,,0.17,Wunderground v.1.15,2013-04-10 09:35:00,
2013-04-10 04:45:00,33.9,32.9,29.88,North,1,9.0,11.0,96,0.00,,,0.17,Wunderground v.1.15,2013-04-10 09:45:00,
2013-04-10 04:55:00,33.9,32.9,29.89,NNE,13,10.0,12.0,96,0.00,,,0.17,Wunderground v.1.15,2013-04-10 09:55:00,
2013-04-10 05:00:00,33.9,32.9,29.90,NE,44,10.0,10.0,96,0.00,,,0.17,Wunderground v.1.15,2013-04-10 10:00:00,
2013-04-10 05:05:00,33.9,32.9,29.89,NE,41,10.0,10.0,96,0.00,,,0.17,Wunderground v.1.15,2013-04-10 10:05:00,
2013-04-10 05:15:00,33.9,32.9,29.90,North,11,10.0,10.0,96,0.00,,,0.17,Wunderground v.1.15,2013-04-10 10:15:00,
2013-04-10 05:25:00,34.0,33.0,29.92,NNE,26,8.0,8.0,96,0.00,,,0.17,Wunderground v.1.15,2013-04-10 10:25:00,
2013-04-10 05:35:00,34.0,33.0,29.95,WNW,302,7.0,8.0,96,0.00,,,0.17,Wunderground v.1.15,2013-04-10 10:35:00,
2013-04-10 05:45:00,34.0,33.0,29.93,North,9,6.0,6.0,96,0.00,,,0.17,Wunderground v.1.15,2013-04-10 10:45:00,
2013-04-10 05:55:00,34.0,33.0,29.92,North,10,6.0,8.0,96,0.00,,,0.17,Wunderground v.1.15,2013-04-10 10:55:00,
2013-04-10 06:00:00,33.9,32.9,29.92,North,359,7.0,7.0,96,0.00,,,0.17,Wunderground v.1.15,2013-04-10 11:00:00,
2013-04-10 06:10:00,33.9,32.9,29.89,NNE,26,8.0,12.0,96,0.00,,,0.17,Wunderground v.1.15,2013-04-10 11:10:00,
2013-04-10 06:20:00,33.9,32.9,29.89,NE,44,11.0,11.0,96,0.00,,,0.17,Wunderground v.1.15,2013-04-10 11:20:00,
2013-04-10 06:30:00,34.0,33.0,29.92,North,4,7.0,7.0,96,0.00,,,0.17,Wunderground v.1.15,2013-04-10 11:30:00,
2013-04-10 06:40:00,34.2,33.2,29.92,NNE,31,5.0,8.0,96,0.00,,,0.17,Wunderground v.1.15,2013-04-10 11:40:00,
2013-04-10 06:50:00,34.1,33.1,29.91,North,4,9.0,9.0,96,0.00,,,0.17,Wunderground v.1.15,2013-04-10 11:50:00,
2013-04-10 07:00:00,34.3,33.3,29.89,NNE,30,9.0,9.0,96,0.00,,,0.17,Wunderground v.1.15,2013-04-10 12:00:00,
2013-04-10 07:10:00,34.3,33.3,29.92,NNE,33,7.0,7.0,96,0.00,,,0.17,Wunderground v.1.15,2013-04-10 12:10:00,
2013-04-10 07:15:00,34.4,33.4,29.93,NNE,13,6.0,7.0,96,0.00,,,0.17,Wunderground v.1.15,2013-04-10 12:15:00,
2013-04-10 07:25:00,34.5,33.5,29.95,North,357,7.0,7.0,96,0.00,,,0.17,Wunderground v.1.15,2013-04-10 12:25:00,
2013-04-10 07:35:00,34.7,33.7,29.97,NNW,332,4.0,6.0,96,0.00,,,0.17,Wunderground v.1.15,2013-04-10 12:35:00,
2013-04-10 07:45:00,34.6,33.6,29.97,NW,321,4.0,7.0,96,0.00,,,0.17,Wunderground v.1.15,2013-04-10 12:45:00,
2013-04-10 07:55:00,34.5,33.5,29.96,NNW,340,5.0,8.0,96,0.00,,,0.17,Wunderground v.1.15,2013-04-10 12:55:00,
2013-04-10 08:00:00,34.5,33.5,29.96,NNW,332,5.0,6.0,96,0.00,,,0.17,Wunderground v.1.15,2013-04-10 13:00:00,
2013-04-10 08:05:00,34.5,33.5,29.94,NNE,20,5.0,6.0,96,0.00,,,0.17,Wunderground v.1.15,2013-04-10 13:05:00,
2013-04-10 08:15:00,34.3,33.3,29.94,NW,321,5.0,8.0,96,0.00,,,0.17,Wunderground v.1.15,2013-04-10 13:15:00,
2013-04-10 08:25:00,34.5,33.5,29.95,NNW,338,5.0,8.0,96,0.00,,,0.17,Wunderground v.1.15,2013-04-10 13:25:00,
2013-04-10 08:35:00,34.6,33.6,29.96,NW,325,6.0,6.0,96,0.00,,,0.17,Wunderground v.1.15,2013-04-10 13:35:00,
2013-04-10 08:45:00,34.6,33.6,29.95,NNW,343,6.0,12.0,96,0.00,,,0.17,Wunderground v.1.15,2013-04-10 13:45:00,
2013-04-10 08:55:00,34.5,33.5,29.94,NNW,331,7.0,7.0,96,0.00,,,0.17,Wunderground v.1.15,2013-04-10 13:55:00,
2013-04-10 09:00:00,34.5,33.5,29.94,NW,319,7.0,7.0,96,0.00,,,0.17,Wunderground v.1.15,2013-04-10 14:00:00,
2013-04-10 09:10:00,34.4,33.4,29.93,NNE,12,8.0,8.0,96,0.00,,,0.18,Wunderground v.1.15,2013-04-10 14:10:00,
2013-04-10 09:20:00,34.6,33.6,29.92,NNW,334,8.0,14.0,96,0.00,,,0.18,Wunderground v.1.15,2013-04-10 14:20:00,
2013-04-10 09:30:00,34.6,33.6,29.92,North,6,8.0,8.0,96,0.00,,,0.18,Wunderground v.1.15,2013-04-10 14:30:00,
2013-04-10 09:40:00,34.8,33.8,29.96,North,3,7.0,7.0,96,0.00,,,0.18,Wunderground v.1.15,2013-04-10 14:40:00,
2013-04-10 09:50:00,34.7,33.7,29.96,NNW,347,8.0,8.0,96,0.00,,,0.18,Wunderground v.1.15,2013-04-10 14:50:00,
2013-04-10 10:00:00,34.6,33.6,29.95,North,355,8.0,8.0,96,0.00,,,0.18,Wunderground v.1.15,2013-04-10 15:00:00,
2013-04-10 10:10:00,34.6,33.6,29.96,NNE,25,8.0,8.0,96,0.00,,,0.18,Wunderground v.1.15,2013-04-10 15:10:00,
2013-04-10 10:20:00,34.4,33.4,29.95,NNW,342,9.0,9.0,96,0.00,,,0.18,Wunderground v.1.15,2013-04-10 15:20:00,
2013-04-10 10:30:00,34.5,33.5,29.94,NNE,26,9.0,9.0,96,0.00,,,0.18,Wunderground v.1.15,2013-04-10 15:30:00,
2013-04-10 10:40:00,34.5,33.5,29.93,North,10,9.0,13.0,96,0.00,,,0.18,Wunderground v.1.15,2013-04-10 15:40:00,
2013-04-10 10:50:00,34.7,33.7,29.95,NNE,23,11.0,18.0,96,0.00,,,0.18,Wunderground v.1.15,2013-04-10 15:50:00,
2013-04-10 11:00:00,34.5,33.5,29.97,NNE,16,11.0,11.0,96,0.00,,,0.18,Wunderground v.1.15,2013-04-10 16:00:00,
2013-04-10 11:10:00,35.0,34.0,29.97,NNE,29,9.0,9.0,96,0.00,,,0.18,Wunderground v.1.15,2013-04-10 16:10:00,
2013-04-10 11:15:00,35.0,34.0,29.98,NE,38,8.0,9.0,96,0.00,,,0.18,Wunderground v.1.15,2013-04-10 16:15:00,
2013-04-10 11:25:00,34.7,33.7,29.97,NNW,342,9.0,11.0,96,0.00,,,0.18,Wunderground v.1.15,2013-04-10 16:25:00,
2013-04-10 11:35:00,34.8,33.8,29.99,NNW,343,8.0,9.0,96,0.00,,,0.18,Wunderground v.1.15,2013-04-10 16:35:00,
2013-04-10 11:45:00,35.0,34.0,30.00,NNE,27,8.0,9.0,96,0.00,,,0.18,Wunderground v.1.15,2013-04-10 16:45:00,
2013-04-10 11:55:00,34.9,33.9,30.00,NNE,19,8.0,9.0,96,0.00,,,0.18,Wunderground v.1.15,2013-04-10 16:55:00,
2013-04-10 12:00:00,34.9,33.9,30.00,NNE,25,8.0,11.0,96,0.00,,,0.18,Wunderground v.1.15,2013-04-10 17:00:00,
2013-04-10 12:10:00,35.1,34.1,30.00,NNW,332,7.0,7.0,96,0.00,,,0.18,Wunderground v.1.15,2013-04-10 17:10:00,
2013-04-10 12:20:00,34.8,33.8,30.00,NW,314,8.0,8.0,96,0.00,,,0.18,Wunderground v.1.15,2013-04-10 17:20:00,
2013-04-10 12:30:00,34.8,33.5,30.00,NNE,26,8.0,9.0,95,0.00,,,0.18,Wunderground v.1.15,2013-04-10 17:30:00,
2013-04-10 12:40:00,34.5,33.2,29.99,NNW,329,8.0,8.0,95,0.00,,,0.18,Wunderground v.1.15,2013-04-10 17:40:00,
2013-04-10 12:50:00,34.3,33.0,29.99,NW,311,9.0,9.0,95,0.00,,,0.18,Wunderground v.1.15,2013-04-10 17:50:00,
2013-04-10 13:00:00,34.2,32.9,29.98,NNE,27,8.0,8.0,95,0.00,,,0.18,Wunderground v.1.15,2013-04-10 18:00:00,
2013-04-10 13:10:00,34.1,32.8,29.97,NNW,330,8.0,8.0,95,0.00,,,0.18,Wunderground v.1.15,2013-04-10 18:10:00,
2013-04-10 13:15:00,34.2,32.9,29.97,NNE,19,9.0,9.0,95,0.00,,,0.18,Wunderground v.1.15,2013-04-10 18:15:00,
2013-04-10 13:25:00,34.0,32.7,29.97,NNE,18,9.0,9.0,95,0.00,,,0.18,Wunderground v.1.15,2013-04-10 18:25:00,
2013-04-10 13:35:00,34.0,32.7,29.96,North,11,9.0,10.0,95,0.00,,,0.18,Wunderground v.1.15,2013-04-10 18:35:00,
2013-04-10 13:45:00,34.0,32.7,29.97,NNW,332,9.0,9.0,95,0.00,,,0.18,Wunderground v.1.15,2013-04-10 18:45:00,
2013-04-10 13:55:00,34.1,32.8,29.98,NW,317,8.0,10.0,95,0.00,,,0.18,Wunderground v.1.15,2013-04-10 18:55:00,
2013-04-10 14:00:00,34.1,32.8,29.96,NE,46,9.0,9.0,95,0.00,,,0.18,Wunderground v.1.15,2013-04-10 19:00:00,
2013-04-10 14:10:00,34.1,32.8,29.95,North,355,9.0,10.0,95,0.00,,,0.18,Wunderground v.1.15,2013-04-10 19:10:00,
2013-04-10 14:20:00,34.1,32.8,29.95,North,354,10.0,10.0,95,0.00,,,0.18,Wunderground v.1.15,2013-04-10 19:20:00,
2013-04-10 14:30:00,34.1,32.8,29.94,NNE,23,10.0,12.0,95,0.00,,,0.18,Wunderground v.1.15,2013-04-10 19:30:00,
2013-04-10 14:40:00,34.0,32.5,29.94,NE,37,11.0,11.0,94,0.00,,,0.18,Wunderground v.1.15,2013-04-10 19:40:00,
2013-04-10 14:45:00,34.1,32.8,29.94,NNE,30,11.0,12.0,95,0.00,,,0.18,Wunderground v.1.15,2013-04-10 19:45:00,
2013-04-10 14:55:00,34.0,32.5,29.94,North,1,11.0,15.0,94,0.00,,,0.18,Wunderground v.1.15,2013-04-10 19:55:00,
2013-04-10 15:00:00,34.1,32.6,29.94,North,10,12.0,12.0,94,0.00,,,0.18,Wunderground v.1.15,2013-04-10 20:00:00,
2013-04-10 15:10:00,34.2,32.7,29.95,North,1,10.0,13.0,94,0.00,,,0.18,Wunderground v.1.15,2013-04-10 20:10:00,
2013-04-10 15:20:00,34.1,32.6,29.95,NNE,20,11.0,11.0,94,0.00,,,0.18,Wunderground v.1.15,2013-04-10 20:20:00,
2013-04-10 15:30:00,34.2,32.7,29.95,North,11,10.0,10.0,94,0.00,,,0.18,Wunderground v.1.15,2013-04-10 20:30:00,
2013-04-10 15:40:00,34.2,32.7,29.94,NNE,26,9.0,11.0,94,0.00,,,0.18,Wunderground v.1.15,2013-04-10 20:40:00,
2013-04-10 15:50:00,34.2,32.7,29.93,NNE,20,11.0,16.0,94,0.00,,,0.19,Wunderground v.1.15,2013-04-10 20:50:00,
2013-04-10 15:55:00,34.2,32.7,29.93,NNE,18,11.0,16.0,94,0.00,,,0.19,Wunderground v.1.15,2013-04-10 20:55:00,
2013-04-10 16:00:00,34.2,32.7,29.92,NE,37,10.0,11.0,94,0.00,,,0.19,Wunderground v.1.15,2013-04-10 21:00:00,
2013-04-10 16:10:00,34.2,32.7,29.92,NE,40,11.0,11.0,94,0.00,,,0.19,Wunderground v.1.15,2013-04-10 21:10:00,
2013-04-10 16:20:00,34.2,32.7,29.92,NNW,340,10.0,10.0,94,0.00,,,0.19,Wunderground v.1.15,2013-04-10 21:20:00,
2013-04-10 16:30:00,34.3,32.8,29.92,North,4,11.0,11.0,94,0.00,,,0.19,Wunderground v.1.15,2013-04-10 21:30:00,
2013-04-10 16:40:00,34.4,32.9,29.92,NNW,333,10.0,10.0,94,0.00,,,0.19,Wunderground v.1.15,2013-04-10 21:40:00,
2013-04-10 16:50:00,34.4,32.9,29.90,NNE,16,12.0,12.0,94,0.00,,,0.19,Wunderground v.1.15,2013-04-10 21:50:00,
2013-04-10 17:00:00,34.9,33.1,29.88,NE,37,11.0,11.0,93,0.00,,,0.19,Wunderground v.1.15,2013-04-10 22:00:00,
2013-04-10 17:10:00,35.0,32.9,29.88,NNW,345,11.0,11.0,92,0.00,,,0.19,Wunderground v.1.15,2013-04-10 22:10:00,
2013-04-10 17:15:00,34.9,32.8,29.88,NE,51,11.0,11.0,92,0.00,,,0.19,Wunderground v.1.15,2013-04-10 22:15:00,
2013-04-10 17:25:00,35.0,33.2,29.87,NNE,15,11.0,11.0,93,0.00,,,0.19,Wunderground v.1.15,2013-04-10 22:25:00,
2013-04-10 17:35:00,35.0,32.9,29.88,NNE,23,12.0,13.0,92,0.00,,,0.19,Wunderground v.1.15,2013-04-10 22:35:00,
2013-04-10 17:45:00,35.1,33.0,29.87,North,3,11.0,13.0,92,0.00,,,0.19,Wunderground v.1.15,2013-04-10 22:45:00,
2013-04-10 17:55:00,35.0,32.9,29.87,NNE,28,11.0,11.0,92,0.00,,,0.19,Wunderground v.1.15,2013-04-10 22:55:00,
2013-04-10 18:00:00,35.0,32.9,29.86,NNE,20,10.0,12.0,92,0.00,,,0.19,Wunderground v.1.15,2013-04-10 23:00:00,
2013-04-10 18:10:00,35.2,32.8,29.86,NE,36,9.0,13.0,91,0.00,,,0.19,Wunderground v.1.15,2013-04-10 23:10:00,
2013-04-10 18:20:00,35.1,32.7,29.85,NE,36,10.0,13.0,91,0.00,,,0.19,Wunderground v.1.15,2013-04-10 23:20:00,
2013-04-10 18:25:00,35.0,32.9,29.85,NNE,28,11.0,13.0,92,0.00,,,0.19,Wunderground v.1.15,2013-04-10 23:25:00,
2013-04-10 18:35:00,35.0,32.6,29.85,North,10,9.0,11.0,91,0.00,,,0.19,Wunderground v.1.15,2013-04-10 23:35:00,
2013-04-10 18:45:00,34.8,32.7,29.85,NNE,25,9.0,9.0,92,0.00,,,0.19,Wunderground v.1.15,2013-04-10 23:45:00,
2013-04-10 18:55:00,34.6,32.8,29.85,NNW,328,6.0,10.0,93,0.00,,,0.19,Wunderground v.1.15,2013-04-10 23:55:00,
2013-04-10 19:00:00,34.5,32.7,29.84,NNE,19,6.0,6.0,93,0.00,,,0.19,Wunderground v.1.15,2013-04-11 00:00:00,
2013-04-10 19:10:00,34.4,32.6,29.85,NNW,342,7.0,7.0,93,0.00,,,0.19,Wunderground v.1.15,2013-04-11 00:10:00,
2013-04-10 19:15:00,34.3,32.5,29.85,NNE,27,7.0,7.0,93,0.00,,,0.19,Wunderground v.1.15,2013-04-11 00:15:00,
2013-04-10 19:25:00,34.1,32.6,29.86,NNE,16,6.0,7.0,94,0.00,,,0.20,Wunderground v.1.15,2013-04-11 00:25:00,
2013-04-10 19:35:00,34.0,32.5,29.87,NNW,327,5.0,6.0,94,0.00,,,0.20,Wunderground v.1.15,2013-04-11 00:35:00,
2013-04-10 19:40:00,33.9,32.4,29.87,NW,325,5.0,6.0,94,0.00,,,0.20,Wunderground v.1.15,2013-04-11 00:40:00,
2013-04-10 19:50:00,33.5,32.0,29.86,NW,326,5.0,5.0,94,0.00,,,0.20,Wunderground v.1.15,2013-04-11 00:50:00,
2013-04-10 19:55:00,33.2,31.7,29.86,NNW,332,5.0,5.0,94,0.00,,,0.20,Wunderground v.1.15,2013-04-11 00:55:00,
2013-04-10 20:00:00,33.1,31.6,29.86,North,1,4.0,4.0,94,0.00,,,0.20,Wunderground v.1.15,2013-04-11 01:00:00,
2013-04-10 20:10:00,32.8,31.5,29.85,NNW,343,5.0,5.0,95,0.00,,,0.21,Wunderground v.1.15,2013-04-11 01:10:00,
2013-04-10 20:20:00,32.7,31.4,29.85,NNW,329,5.0,5.0,95,0.00,,,0.21,Wunderground v.1.15,2013-04-11 01:20:00,
2013-04-10 20:30:00,32.6,31.3,29.86,WNW,283,3.0,3.0,95,0.00,,,0.21,Wunderground v.1.15,2013-04-11 01:30:00,
2013-04-10 20:40:00,32.4,31.1,29.87,West,273,3.0,3.0,95,0.00,,,0.21,Wunderground v.1.15,2013-04-11 01:40:00,
2013-04-10 20:50:00,32.2,30.9,29.87,NW,308,2.0,5.0,95,0.00,,,0.21,Wunderground v.1.15,2013-04-11 01:50:00,
2013-04-10 21:00:00,32.1,30.8,29.88,North,358,3.0,3.0,95,0.00,,,0.21,Wunderground v.1.15,2013-04-11 02:00:00,
2013-04-10 21:10:00,32.0,30.7,29.89,WNW,301,3.0,4.0,95,0.00,,,0.21,Wunderground v.1.15,2013-04-11 02:10:00,
2013-04-10 21:15:00,31.9,30.6,29.88,NW,316,3.0,4.0,95,0.00,,,0.21,Wunderground v.1.15,2013-04-11 02:15:00,
2013-04-10 21:20:00,31.9,30.6,29.88,NNW,328,3.0,3.0,95,0.00,,,0.21,Wunderground v.1.15,2013-04-11 02:20:00,
2013-04-10 21:30:00,31.8,30.5,29.87,NNW,333,3.0,5.0,95,0.00,,,0.21,Wunderground v.1.15,2013-04-11 02:30:00,
2013-04-10 21:40:00,31.7,30.4,29.86,NW,316,5.0,7.0,95,0.00,,,0.21,Wunderground v.1.15,2013-04-11 02:40:00,
2013-04-10 21:50:00,31.6,30.3,29.87,NNW,335,5.0,5.0,95,0.00,,,0.21,Wunderground v.1.15,2013-04-11 02:50:00,
2013-04-10 22:00:00,31.6,30.3,29.87,NNW,339,4.0,5.0,95,0.00,,,0.21,Wunderground v.1.15,2013-04-11 03:00:00,
2013-04-10 22:10:00,31.6,30.3,29.87,WNW,287,4.0,4.0,95,0.00,,,0.21,Wunderground v.1.15,2013-04-11 03:10:00,
2013-04-10 22:15:00,31.6,30.3,29.87,WNW,300,4.0,4.0,95,0.00,,,0.21,Wunderground v.1.15,2013-04-11 03:15:00,
2013-04-10 22:25:00,31.6,30.3,29.87,NW,319,3.0,5.0,95,0.00,,,0.21,Wunderground v.1.15,2013-04-11 03:25:00,
2013-04-10 22:35:00,31.5,30.2,29.86,WNW,298,3.0,5.0,95,0.00,,,0.21,Wunderground v.1.15,2013-04-11 03:35:00,
2013-04-10 22:45:00,31.4,30.1,29.86,NW,304,4.0,4.0,95,0.00,,,0.21,Wunderground v.1.15,2013-04-11 03:45:00,
2013-04-10 22:55:00,31.4,30.1,29.87,NW,311,3.0,5.0,95,0.00,,,0.21,Wunderground v.1.15,2013-04-11 03:55:00,
2013-04-10 23:00:00,31.3,30.0,29.87,NW,317,4.0,4.0,95,0.00,,,0.21,Wunderground v.1.15,2013-04-11 04:00:00,
2013-04-10 23:05:00,31.3,30.0,29.86,NW,315,4.0,4.0,95,0.00,,,0.21,Wunderground v.1.15,2013-04-11 04:05:00,
2013-04-10 23:10:00,31.2,29.9,29.86,West,281,4.0,6.0,95,0.00,,,0.21,Wunderground v.1.15,2013-04-11 04:10:00,
2013-04-10 23:20:00,31.1,29.8,29.86,WNW,300,5.0,5.0,95,0.00,,,0.21,Wunderground v.1.15,2013-04-11 04:20:00,
2013-04-10 23:30:00,31.1,29.8,29.85,NW,311,4.0,6.0,95,0.00,,,0.21,Wunderground v.1.15,2013-04-11 04:30:00,
2013-04-10 23:40:00,31.0,29.7,29.85,NW,312,5.0,5.0,95,0.00,,,0.21,Wunderground v.1.15,2013-04-11 04:40:00,
2013-04-10 23:50:00,30.9,29.6,29.85,NW,319,4.0,4.0,95,0.00,,,0.21,Wunderground v.1.15,2013-04-11 04:50:00,